Time;durP1;ratioP1;P1;durP2;ratioP2;P2;SDS_P1;SDS_P2;PMS_P1;PMS_P2;Temp;Humidity;BMP_temperature;BMP_pressure;BME280_temperature;BME280_humidity;BME280_pressure;Samples;Min_cycle;Max_cycle;Signal;HPM_P1;HPM_P2
2021/10/17 00:01:26;;;;;;;7.93;7.10;;;13.50;73.40;;;;;;4988102;28;20034;-76
2021/10/17 00:03:52;;;;;;;7.63;6.50;;;13.50;73.50;;;;;;5003628;28;20030;-76
2021/10/17 00:06:18;;;;;;;8.38;7.28;;;13.50;73.50;;;;;;4988610;28;20054;-76
2021/10/17 00:08:44;;;;;;;9.02;6.45;;;13.50;73.50;;;;;;4988791;28;20030;-73
2021/10/17 00:11:10;;;;;;;8.60;7.18;;;13.50;73.50;;;;;;4987977;28;20133;-75
2021/10/17 00:13:37;;;;;;;7.13;6.43;;;13.50;73.50;;;;;;4988913;28;20064;-76
2021/10/17 00:16:03;;;;;;;8.13;6.47;;;13.40;73.40;;;;;;5003657;28;20050;-76
2021/10/17 00:18:29;;;;;;;8.00;7.20;;;13.40;73.40;;;;;;4988282;28;20405;-75
2021/10/17 00:20:57;;;;;;;7.65;6.78;;;13.40;73.50;;;;;;4988541;28;20092;-74
2021/10/17 00:23:23;;;;;;;11.02;7.50;;;13.30;73.30;;;;;;4987658;28;20509;-76
2021/10/17 00:25:49;;;;;;;9.55;7.45;;;13.30;73.30;;;;;;5000599;28;20030;-75
2021/10/17 00:28:16;;;;;;;9.85;7.57;;;13.30;73.30;;;;;;5004027;28;20398;-77
2021/10/17 00:30:48;;;;;;;8.70;7.70;;;13.30;73.40;;;;;;4987231;28;20088;-78
2021/10/17 00:33:14;;;;;;;10.38;7.75;;;13.30;73.40;;;;;;4986454;28;20030;-77
2021/10/17 00:35:40;;;;;;;8.65;7.22;;;13.20;73.30;;;;;;5003181;28;20042;-76
2021/10/17 00:38:07;;;;;;;8.57;7.68;;;13.20;73.30;;;;;;5004643;28;20072;-78
2021/10/17 00:40:33;;;;;;;9.90;6.93;;;13.20;73.40;;;;;;5006933;28;20064;-78
2021/10/17 00:42:59;;;;;;;7.82;7.00;;;13.20;73.40;;;;;;5003715;28;20366;-77
2021/10/17 00:45:30;;;;;;;9.02;6.80;;;13.20;73.40;;;;;;4988314;28;20030;-76
2021/10/17 00:48:00;;;;;;;8.30;7.53;;;13.10;73.30;;;;;;4986467;28;20490;-78
2021/10/17 00:50:27;;;;;;;9.05;7.13;;;13.10;73.40;;;;;;5002462;28;20084;-78
2021/10/17 00:52:54;;;;;;;8.43;7.40;;;13.10;73.40;;;;;;4986349;28;20030;-77
2021/10/17 00:55:22;;;;;;;8.23;7.38;;;13.10;73.40;;;;;;4996211;28;20049;-78
2021/10/17 00:57:48;;;;;;;10.18;7.45;;;13.10;73.40;;;;;;5005902;28;20033;-78
2021/10/17 01:00:15;;;;;;;11.52;8.82;;;13.10;73.50;;;;;;4987811;28;20035;-79
2021/10/17 01:02:42;;;;;;;10.10;7.32;;;13.00;73.30;;;;;;5002770;28;20105;-76
2021/10/17 01:05:18;;;;;;;7.90;7.07;;;13.00;73.40;;;;;;5006223;28;20505;-79
2021/10/17 01:07:45;;;;;;;8.93;7.97;;;13.00;73.90;;;;;;5022168;28;20469;-74
2021/10/17 01:10:16;;;;;;;8.75;7.85;;;13.00;73.40;;;;;;4986077;28;20437;-77
2021/10/17 01:12:43;;;;;;;9.30;7.75;;;12.90;73.30;;;;;;4985899;28;20041;-76
2021/10/17 01:15:10;;;;;;;8.52;7.38;;;12.90;73.30;;;;;;5002195;28;20560;-76
2021/10/17 01:17:43;;;;;;;8.70;7.80;;;12.90;73.30;;;;;;4986593;28;20066;-77
2021/10/17 01:20:10;;;;;;;8.50;7.10;;;12.90;73.40;;;;;;5002332;28;20296;-74
2021/10/17 01:22:38;;;;;;;8.68;7.57;;;12.90;73.40;;;;;;4970157;28;20240;-77
2021/10/17 01:25:05;;;;;;;7.47;6.78;;;12.90;73.50;;;;;;4991948;28;20263;-77
2021/10/17 01:27:31;;;;;;;8.30;7.25;;;12.80;73.30;;;;;;5022050;28;20037;-75
2021/10/17 01:29:57;;;;;;;8.40;7.03;;;12.80;73.40;;;;;;4989916;28;20031;-78
2021/10/17 01:32:23;;;;;;;9.75;7.22;;;12.80;73.40;;;;;;4986870;28;20080;-77
2021/10/17 01:34:49;;;;;;;8.02;7.22;;;12.80;73.50;;;;;;5003484;28;20061;-75
2021/10/17 01:37:15;;;;;;;9.20;7.70;;;12.80;73.50;;;;;;5003801;28;20130;-78
2021/10/17 01:39:42;;;;;;;8.82;7.93;;;12.80;73.60;;;;;;4987753;28;20038;-77
2021/10/17 01:42:08;;;;;;;7.50;6.80;;;12.80;73.60;;;;;;4987631;28;20034;-78
2021/10/17 01:44:42;;;;;;;10.52;8.15;;;12.80;73.60;;;;;;5003325;28;20038;-77
2021/10/17 01:47:08;;;;;;;8.65;7.45;;;12.90;73.80;;;;;;5005752;28;20475;-77
2021/10/17 01:49:35;;;;;;;9.63;8.18;;;12.80;73.60;;;;;;5006282;28;20034;-78
2021/10/17 01:52:06;;;;;;;9.32;7.70;;;12.90;73.80;;;;;;5006858;28;20034;-78
2021/10/17 01:54:33;;;;;;;7.97;7.20;;;12.80;73.70;;;;;;5009075;28;20045;-79
2021/10/17 01:57:00;;;;;;;8.93;7.10;;;12.90;73.80;;;;;;5026944;28;20069;-75
2021/10/17 01:59:34;;;;;;;7.97;7.13;;;12.90;73.80;;;;;;5026365;28;20030;-78
2021/10/17 02:02:10;;;;;;;7.63;6.70;;;12.90;73.80;;;;;;5010192;28;20042;-77
2021/10/17 02:04:37;;;;;;;9.95;7.85;;;12.80;73.70;;;;;;5010821;28;20192;-78
2021/10/17 02:07:04;;;;;;;8.25;7.22;;;12.90;73.90;;;;;;4993660;28;20040;-78
2021/10/17 02:09:31;;;;;;;10.02;6.47;;;12.90;73.90;;;;;;5009634;28;20115;-78
2021/10/17 02:11:57;;;;;;;9.23;7.65;;;12.90;73.90;;;;;;5026391;28;20056;-79
2021/10/17 02:14:23;;;;;;;8.98;7.72;;;12.90;73.90;;;;;;5011112;28;20050;-79
2021/10/17 02:16:51;;;;;;;10.70;8.52;;;12.90;74.00;;;;;;5009910;28;20128;-78
2021/10/17 02:19:17;;;;;;;8.15;7.20;;;12.90;74.00;;;;;;5026480;28;20029;-80
2021/10/17 02:21:43;;;;;;;7.90;7.10;;;12.90;74.00;;;;;;5009738;28;20504;-78
2021/10/17 02:24:11;;;;;;;9.13;8.23;;;12.90;74.00;;;;;;5011262;28;20037;-79
2021/10/17 02:26:38;;;;;;;8.65;7.88;;;12.90;74.00;;;;;;5025847;28;20030;-80
2021/10/17 02:29:30;;;;;;;10.00;7.13;;;12.90;74.00;;;;;;5009666;28;20040;-80
2021/10/17 02:32:13;;;;;;;;;;;12.90;74.00;;;;;;5010307;28;20263;-78
2021/10/17 02:34:40;;;;;;;8.15;7.35;;;12.90;73.90;;;;;;5009459;28;19992;-76
2021/10/17 02:37:07;;;;;;;9.80;7.70;;;13.00;74.00;;;;;;5026326;28;20054;-78
2021/10/17 02:39:33;;;;;;;8.95;8.05;;;13.00;74.10;;;;;;5025494;28;20026;-78
2021/10/17 02:41:59;;;;;;;8.55;6.80;;;13.00;74.10;;;;;;5026161;28;20132;-76
2021/10/17 02:44:29;;;;;;;8.82;7.28;;;13.00;74.20;;;;;;5025883;28;20486;-79
2021/10/17 02:46:55;;;;;;;9.27;7.78;;;13.00;74.20;;;;;;5025794;28;20042;-78
2021/10/17 02:49:21;;;;;;;9.00;7.38;;;13.00;74.20;;;;;;5010929;28;20365;-78
2021/10/17 02:51:47;;;;;;;7.93;7.13;;;13.00;74.20;;;;;;5009691;28;20060;-78
2021/10/17 02:54:13;;;;;;;8.93;8.02;;;13.00;74.30;;;;;;5010976;28;20069;-77
2021/10/17 02:56:43;;;;;;;7.97;7.20;;;13.10;74.40;;;;;;4989702;28;20030;-75
2021/10/17 02:59:14;;;;;;;8.07;7.30;;;13.00;74.80;;;;;;5006993;28;20032;-76
2021/10/17 03:01:41;;;;;;;8.60;7.10;;;13.00;74.30;;;;;;4993630;28;20493;-80
2021/10/17 03:04:07;;;;;;;7.82;7.05;;;13.00;74.30;;;;;;4993582;28;20034;-79
2021/10/17 03:06:33;;;;;;;8.45;7.55;;;13.00;74.30;;;;;;4993678;28;20585;-78
2021/10/17 03:08:59;;;;;;;7.70;7.00;;;13.00;74.40;;;;;;4993467;28;20113;-78
2021/10/17 03:11:25;;;;;;;8.20;7.35;;;13.00;74.30;;;;;;4976696;28;20034;-77
2021/10/17 03:13:51;;;;;;;8.23;7.43;;;13.10;74.60;;;;;;4993277;28;20540;-77
2021/10/17 03:16:30;;;;;;;8.98;7.35;;;13.10;74.60;;;;;;4993607;28;20042;-79
2021/10/17 03:18:56;;;;;;;8.90;6.90;;;13.00;74.40;;;;;;5009475;28;20026;-80
2021/10/17 03:21:22;;;;;;;7.82;7.10;;;13.10;74.60;;;;;;4994731;28;20030;-78
2021/10/17 03:23:49;;;;;;;9.75;7.47;;;13.10;74.60;;;;;;4992971;28;20394;-79
2021/10/17 03:26:15;;;;;;;7.65;6.95;;;13.10;74.60;;;;;;5025701;28;20034;-76
2021/10/17 03:28:44;;;;;;;8.32;7.53;;;13.10;74.60;;;;;;5012730;28;20061;-76
2021/10/17 03:31:10;;;;;;;8.98;8.13;;;13.10;74.60;;;;;;5029212;28;20061;-79
2021/10/17 03:33:37;;;;;;;8.30;7.32;;;13.10;74.60;;;;;;4996531;28;20432;-79
2021/10/17 03:36:09;;;;;;;8.80;7.28;;;13.10;75.20;;;;;;5012546;28;20056;-78
2021/10/17 03:38:39;;;;;;;8.55;7.53;;;13.10;74.60;;;;;;5028511;28;20026;-77
2021/10/17 03:41:05;;;;;;;8.13;7.25;;;13.10;74.70;;;;;;5013121;28;20073;-77
2021/10/17 03:43:40;;;;;;;8.20;6.85;;;13.10;74.70;;;;;;5028925;28;20032;-77
2021/10/17 03:46:06;;;;;;;8.93;7.65;;;13.10;74.70;;;;;;5012496;28;20061;-78
2021/10/17 03:48:33;;;;;;;8.50;7.57;;;13.10;74.70;;;;;;4995809;28;20038;-78
2021/10/17 03:51:08;;;;;;;8.77;7.28;;;13.10;74.80;;;;;;5012138;28;20111;-76
2021/10/17 03:53:35;;;;;;;7.88;7.07;;;13.10;74.80;;;;;;5028616;28;20068;-77
2021/10/17 03:56:01;;;;;;;8.73;7.80;;;13.10;74.80;;;;;;5028431;28;20041;-75
2021/10/17 03:58:27;;;;;;;8.02;7.22;;;13.20;75.00;;;;;;5013457;28;20036;-78
2021/10/17 04:00:53;;;;;;;9.82;7.88;;;13.20;75.00;;;;;;5012170;28;20034;-79
2021/10/17 04:03:20;;;;;;;9.60;7.75;;;13.20;75.00;;;;;;5012019;28;20505;-77
2021/10/17 04:05:50;;;;;;;8.55;7.57;;;13.20;75.00;;;;;;5028567;28;20033;-78
2021/10/17 04:08:20;;;;;;;8.43;7.55;;;13.20;75.00;;;;;;5011868;28;20030;-79
2021/10/17 04:10:47;;;;;;;8.57;7.53;;;13.20;75.00;;;;;;5027139;28;20076;-78
2021/10/17 04:13:13;;;;;;;8.73;7.65;;;13.20;75.00;;;;;;4995583;28;20038;-75
2021/10/17 04:15:40;;;;;;;8.30;7.53;;;13.20;75.10;;;;;;5011462;28;20049;-75
2021/10/17 04:18:08;;;;;;;8.20;7.40;;;13.20;75.10;;;;;;5011960;28;20029;-76
2021/10/17 04:20:34;;;;;;;9.35;8.55;;;13.20;75.10;;;;;;5011462;28;20029;-79
2021/10/17 04:23:00;;;;;;;8.52;7.72;;;13.20;75.10;;;;;;5011809;28;20389;-75
2021/10/17 04:25:29;;;;;;;9.25;7.97;;;13.20;75.10;;;;;;4995379;28;20390;-76
2021/10/17 04:27:56;;;;;;;9.15;7.80;;;13.20;75.10;;;;;;5028223;28;20108;-78
2021/10/17 04:30:22;;;;;;;8.88;7.97;;;13.20;75.10;;;;;;5027670;28;20393;-77
2021/10/17 04:32:48;;;;;;;8.88;7.47;;;13.20;75.10;;;;;;5012761;28;20029;-77
2021/10/17 04:35:14;;;;;;;9.10;8.20;;;13.20;75.10;;;;;;5011377;28;20042;-77
2021/10/17 04:37:40;;;;;;;10.40;8.40;;;13.20;75.10;;;;;;5027454;28;20409;-74
2021/10/17 04:40:07;;;;;;;10.10;9.10;;;13.20;75.20;;;;;;5012084;28;20068;-77
2021/10/17 04:42:35;;;;;;;8.88;8.00;;;13.20;75.20;;;;;;4995043;28;20030;-78
2021/10/17 04:45:03;;;;;;;9.20;8.30;;;13.20;75.20;;;;;;5012392;28;20491;-78
2021/10/17 04:47:29;;;;;;;9.50;8.50;;;13.20;75.20;;;;;;5006275;28;20038;-75
2021/10/17 04:49:55;;;;;;;9.10;7.85;;;13.20;75.20;;;;;;4988278;28;20367;-74
2021/10/17 04:52:21;;;;;;;9.85;7.68;;;13.30;75.40;;;;;;4988144;28;20096;-77
2021/10/17 04:54:47;;;;;;;9.07;8.13;;;13.20;75.30;;;;;;4991713;28;20041;-76
2021/10/17 04:57:14;;;;;;;10.88;8.60;;;13.30;75.50;;;;;;5024189;28;20067;-74
2021/10/17 04:59:44;;;;;;;9.50;8.63;;;13.30;75.50;;;;;;5023861;28;20120;-78
2021/10/17 05:02:11;;;;;;;9.25;8.45;;;13.30;75.50;;;;;;5021721;28;20057;-77
2021/10/17 05:04:38;;;;;;;8.90;8.07;;;13.30;75.50;;;;;;4986311;28;20061;-77
2021/10/17 05:07:05;;;;;;;9.85;8.73;;;13.30;75.50;;;;;;5002793;28;20113;-76
2021/10/17 05:09:31;;;;;;;10.13;9.23;;;13.30;75.50;;;;;;4971135;28;20041;-73
2021/10/17 05:11:58;;;;;;;10.00;8.98;;;13.30;75.50;;;;;;4986370;28;20039;-77
2021/10/17 05:14:24;;;;;;;10.82;9.82;;;13.30;75.60;;;;;;4986286;28;20034;-78
2021/10/17 05:16:50;;;;;;;9.52;8.55;;;13.40;75.70;;;;;;4987550;28;20034;-72
2021/10/17 05:19:17;;;;;;;9.38;8.45;;;13.30;75.50;;;;;;4985903;28;20034;-77
2021/10/17 05:21:45;;;;;;;10.80;9.75;;;13.40;75.80;;;;;;4986301;28;20428;-76
2021/10/17 05:24:11;;;;;;;9.93;8.90;;;13.40;75.80;;;;;;5006024;28;20501;-74
2021/10/17 05:26:38;;;;;;;9.88;8.98;;;13.40;75.70;;;;;;5021846;28;20022;-76
2021/10/17 05:29:04;;;;;;;10.52;9.40;;;13.40;75.80;;;;;;4974767;28;20087;-77
2021/10/17 05:31:30;;;;;;;11.15;9.60;;;13.40;75.80;;;;;;4986442;28;20438;-76
2021/10/17 05:33:56;;;;;;;9.75;8.80;;;13.40;75.80;;;;;;4985453;28;20034;-79
2021/10/17 05:36:22;;;;;;;10.45;9.35;;;13.30;75.60;;;;;;5002455;28;20061;-78
2021/10/17 05:38:53;;;;;;;10.10;9.10;;;13.40;75.80;;;;;;4998297;28;20061;-78
2021/10/17 05:41:22;;;;;;;9.77;8.65;;;13.40;75.80;;;;;;5004869;28;20037;-75
2021/10/17 05:43:49;;;;;;;10.70;9.65;;;13.40;75.80;;;;;;4988951;28;20081;-76
2021/10/17 05:46:15;;;;;;;10.30;9.40;;;13.40;75.80;;;;;;5022021;28;20054;-79
2021/10/17 05:48:42;;;;;;;11.63;10.60;;;13.40;75.80;;;;;;5010099;28;20057;-75
2021/10/17 05:51:08;;;;;;;10.68;9.57;;;13.40;75.80;;;;;;4985567;28;20038;-77
2021/10/17 05:53:39;;;;;;;11.63;9.85;;;13.40;75.90;;;;;;4985292;28;20030;-77
2021/10/17 05:56:05;;;;;;;11.38;10.20;;;13.50;76.00;;;;;;5000579;28;20131;-78
2021/10/17 05:58:31;;;;;;;11.57;10.43;;;13.50;76.10;;;;;;4985835;28;20346;-74
2021/10/17 06:00:58;;;;;;;11.77;10.63;;;13.50;76.00;;;;;;4985307;28;20034;-79
2021/10/17 06:03:26;;;;;;;10.27;9.18;;;13.50;76.10;;;;;;4984878;28;20515;-74
2021/10/17 06:06:15;;;;;;;11.10;10.00;;;13.50;76.10;;;;;;4984944;28;20093;-77
2021/10/17 06:08:43;;;;;;;11.27;10.30;;;13.50;76.00;;;;;;4983975;28;20019;-77
2021/10/17 06:11:09;;;;;;;11.40;10.20;;;13.50;76.10;;;;;;4984323;28;20281;-77
2021/10/17 06:13:35;;;;;;;11.70;10.60;;;13.50;76.10;;;;;;4986876;28;20253;-76
2021/10/17 06:16:01;;;;;;;11.43;10.23;;;13.50;76.10;;;;;;4985438;28;20049;-73
2021/10/17 06:18:28;;;;;;;11.95;10.10;;;13.50;76.10;;;;;;5001528;28;20065;-77
2021/10/17 06:20:54;;;;;;;13.82;10.73;;;13.50;76.10;;;;;;5001555;28;20397;-75
2021/10/17 06:23:20;;;;;;;11.35;10.25;;;13.50;76.10;;;;;;5001226;28;20022;-79
2021/10/17 06:25:48;;;;;;;11.10;10.00;;;13.50;76.10;;;;;;4997719;28;20473;-76
2021/10/17 06:28:16;;;;;;;12.15;10.90;;;13.50;76.10;;;;;;4997056;28;20031;-78
2021/10/17 06:30:42;;;;;;;14.88;11.55;;;13.50;76.10;;;;;;4985845;28;20045;-75
2021/10/17 06:33:08;;;;;;;13.45;11.90;;;13.50;76.10;;;;;;5001277;28;20121;-74
2021/10/17 06:35:35;;;;;;;13.13;11.82;;;13.50;76.20;;;;;;4987987;28;20050;-78
2021/10/17 06:38:01;;;;;;;12.77;11.52;;;13.50;76.20;;;;;;5004532;28;20031;-76
2021/10/17 06:40:27;;;;;;;12.30;11.10;;;13.50;76.20;;;;;;4989029;28;20405;-78
2021/10/17 06:42:53;;;;;;;13.55;12.27;;;13.50;76.20;;;;;;4990432;28;20026;-80
2021/10/17 06:45:42;;;;;;;13.60;12.30;;;13.50;76.20;;;;;;4990751;28;20089;-75
2021/10/17 06:48:11;;;;;;;13.07;11.73;;;13.50;76.30;;;;;;4988904;28;20042;-75
2021/10/17 06:50:37;;;;;;;12.57;11.38;;;13.50;76.30;;;;;;4973018;28;20058;-78
2021/10/17 06:53:03;;;;;;;12.25;10.95;;;13.50;76.30;;;;;;4988554;28;20503;-77
2021/10/17 06:55:29;;;;;;;13.60;12.20;;;13.50;76.40;;;;;;4998607;28;20046;-78
2021/10/17 06:57:57;;;;;;;13.35;12.05;;;13.50;76.40;;;;;;5003988;28;20488;-79
2021/10/17 07:00:23;;;;;;;13.13;11.82;;;13.60;76.60;;;;;;4988554;28;20117;-77
2021/10/17 07:02:50;;;;;;;13.77;12.25;;;13.60;76.60;;;;;;4972905;28;20030;-77
2021/10/17 07:05:19;;;;;;;13.52;12.23;;;13.60;76.60;;;;;;4988721;28;20066;-74
2021/10/17 07:07:45;;;;;;;13.27;11.90;;;13.60;76.60;;;;;;4988519;28;20488;-81
2021/10/17 07:10:11;;;;;;;13.80;12.23;;;13.60;76.60;;;;;;4988566;28;20034;-78
2021/10/17 07:12:56;;;;;;;13.32;11.82;;;13.60;76.60;;;;;;4986912;28;20049;-80
2021/10/17 07:15:29;;;;;;;12.45;11.15;;;13.70;76.80;;;;;;4983718;28;20049;-80
2021/10/17 07:17:56;;;;;;;12.88;11.52;;;13.60;76.60;;;;;;4964789;28;20469;-82
2021/10/17 07:20:23;;;;;;;14.00;12.80;;;13.70;76.70;;;;;;5007610;28;20121;-78
2021/10/17 07:22:49;;;;;;;13.40;12.13;;;13.70;76.70;;;;;;4999751;28;20038;-79
2021/10/17 07:25:16;;;;;;;13.60;12.18;;;13.70;76.70;;;;;;4998063;28;20084;-77
2021/10/17 07:27:43;;;;;;;14.43;13.10;;;13.70;76.70;;;;;;5008840;28;20732;-83
2021/10/17 07:30:11;;;;;;;14.25;12.75;;;13.70;76.70;;;;;;5001873;28;20602;-84
2021/10/17 07:32:37;;;;;;;12.98;11.63;;;13.80;76.80;;;;;;4983347;28;20521;-82
2021/10/17 07:35:05;;;;;;;12.45;11.25;;;13.70;76.70;;;;;;4987972;28;20042;-84
2021/10/17 07:37:35;;;;;;;13.23;12.00;;;13.80;76.80;;;;;;4981348;28;20042;-86
2021/10/17 07:40:04;;;;;;;14.23;12.80;;;13.80;76.80;;;;;;5003916;28;20026;-86
2021/10/17 07:42:36;;;;;;;13.32;11.93;;;13.80;76.80;;;;;;4999546;28;20121;-82
2021/10/17 07:45:04;;;;;;;14.43;12.98;;;13.80;76.70;;;;;;5003514;28;20486;-75
2021/10/17 07:47:40;;;;;;;14.93;13.38;;;13.90;76.90;;;;;;4986817;28;20542;-77
2021/10/17 07:50:11;;;;;;;14.38;12.95;;;13.90;76.90;;;;;;4986526;28;20049;-79
2021/10/17 07:52:40;;;;;;;14.52;13.02;;;13.90;76.90;;;;;;5010632;28;20120;-79
2021/10/17 07:55:33;;;;;;;14.43;12.50;;;13.90;76.90;;;;;;5007385;28;20494;-79
2021/10/17 07:58:01;;;;;;;15.18;13.48;;;14.00;77.00;;;;;;5002369;28;20032;-75
2021/10/17 08:00:41;;;;;;;14.93;13.43;;;14.00;77.00;;;;;;5004177;28;20030;-80
2021/10/17 08:03:26;;;;;;;16.08;14.48;;;14.00;77.00;;;;;;5001552;28;20485;-81
2021/10/17 08:06:02;;;;;;;13.70;12.40;;;14.00;77.00;;;;;;5006890;28;20057;-75
2021/10/17 08:08:30;;;;;;;14.35;12.93;;;14.10;77.10;;;;;;4982200;28;20038;-78
2021/10/17 08:10:57;;;;;;;14.48;12.98;;;14.10;77.10;;;;;;4987677;28;20165;-82
2021/10/17 08:13:25;;;;;;;13.43;12.02;;;14.10;77.00;;;;;;4986495;28;20409;-78
2021/10/17 08:15:56;;;;;;;14.95;13.48;;;14.20;77.20;;;;;;4971529;28;20094;-77
2021/10/17 08:18:26;;;;;;;15.55;13.95;;;14.20;77.10;;;;;;4987255;28;20030;-75
2021/10/17 08:20:56;;;;;;;13.88;12.48;;;14.20;77.10;;;;;;4987269;28;20048;-75
2021/10/17 08:23:23;;;;;;;15.52;13.23;;;14.20;77.10;;;;;;5003199;28;20445;-79
2021/10/17 08:25:50;;;;;;;15.32;13.73;;;14.20;77.20;;;;;;5000000;28;20025;-81
2021/10/17 08:28:18;;;;;;;14.40;12.75;;;14.30;77.30;;;;;;5015735;28;20386;-82
2021/10/17 08:30:46;;;;;;;13.57;12.18;;;14.30;77.30;;;;;;4987529;28;20306;-86
2021/10/17 08:33:14;;;;;;;16.45;13.35;;;14.40;77.40;;;;;;5003957;28;20061;-86
2021/10/17 08:35:41;;;;;;;13.50;12.20;;;14.40;77.40;;;;;;4988353;28;20053;-79
2021/10/17 08:38:12;;;;;;;15.23;13.23;;;14.40;77.30;;;;;;5002727;28;20513;-80
2021/10/17 08:40:59;;;;;;;16.63;14.07;;;14.50;77.50;;;;;;4986917;28;20089;-80
2021/10/17 08:43:36;;;;;;;14.15;12.68;;;14.50;77.50;;;;;;4986390;28;20070;-80
2021/10/17 08:46:11;;;;;;;14.85;13.38;;;14.60;77.60;;;;;;5002874;28;20389;-78
2021/10/17 08:48:46;;;;;;;13.23;11.93;;;14.60;77.50;;;;;;4970898;28;20512;-79
2021/10/17 08:51:14;;;;;;;14.50;13.02;;;14.60;77.50;;;;;;4970822;28;20045;-75
2021/10/17 08:53:48;;;;;;;13.13;11.85;;;14.70;77.50;;;;;;4996994;28;20050;-84
2021/10/17 08:56:20;;;;;;;13.32;12.02;;;14.80;77.60;;;;;;4979033;28;20042;-79
2021/10/17 08:58:46;;;;;;;15.68;13.27;;;14.80;77.60;;;;;;4988729;28;20436;-81
2021/10/17 09:01:35;;;;;;;14.63;13.32;;;14.90;77.70;;;;;;5016184;28;20030;-81
2021/10/17 09:04:03;;;;;;;14.57;13.25;;;14.90;77.60;;;;;;4986375;28;20053;-77
2021/10/17 09:06:52;;;;;;;13.70;12.25;;;15.00;77.70;;;;;;4978632;28;20050;-79
2021/10/17 09:09:19;;;;;;;14.18;12.38;;;15.00;77.60;;;;;;5002858;28;20092;-81
2021/10/17 09:11:57;;;;;;;19.38;16.02;;;15.10;77.60;;;;;;4986189;28;20077;-78
2021/10/17 09:14:27;;;;;;;22.65;16.45;;;15.10;78.00;;;;;;4987407;28;20034;-78
2021/10/17 09:16:56;;;;;;;17.95;14.95;;;15.20;78.50;;;;;;4987433;28;20046;-80
2021/10/17 09:19:30;;;;;;;19.42;15.80;;;15.30;79.00;;;;;;4986967;28;20145;-78
2021/10/17 09:22:08;;;;;;;19.15;14.82;;;15.50;79.60;;;;;;4975821;28;20035;-81
2021/10/17 09:24:40;;;;;;;16.52;14.70;;;15.60;80.00;;;;;;4990158;28;20065;-78
2021/10/17 09:27:15;;;;;;;17.80;15.90;;;15.80;80.20;;;;;;5006875;28;20174;-77
2021/10/17 09:29:46;;;;;;;15.13;13.25;;;15.90;80.50;;;;;;4986983;28;20398;-77
2021/10/17 09:32:17;;;;;;;20.10;13.85;;;16.00;80.40;;;;;;4980790;28;20046;-77
2021/10/17 09:35:02;;;;;;;15.23;13.13;;;16.20;80.70;;;;;;4972933;28;20039;-81
2021/10/17 09:37:45;;;;;;;15.48;13.25;;;16.30;80.70;;;;;;4970437;28;20031;-79
2021/10/17 09:40:25;;;;;;;13.55;12.18;;;16.50;80.70;;;;;;5006075;28;20057;-80
2021/10/17 09:43:24;;;;;;;15.52;12.45;;;16.60;80.60;;;;;;4997634;28;20034;-79
2021/10/17 09:46:15;;;;;;;14.15;12.10;;;16.70;80.50;;;;;;4985662;28;20039;-81
2021/10/17 09:48:44;;;;;;;12.98;11.57;;;16.80;80.30;;;;;;4996989;28;20029;-79
2021/10/17 09:51:29;;;;;;;12.32;11.02;;;17.00;80.50;;;;;;5005164;28;20048;-80
2021/10/17 09:53:57;;;;;;;12.93;11.60;;;17.00;80.30;;;;;;5006433;28;20291;-81
2021/10/17 09:56:50;;;;;;;14.93;11.27;;;17.20;80.40;;;;;;5006439;28;20696;-80
2021/10/17 09:59:16;;;;;;;13.25;11.85;;;17.30;80.30;;;;;;4989275;28;20066;-80
2021/10/17 10:01:42;;;;;;;12.32;11.00;;;17.40;80.20;;;;;;4985836;28;20061;-82
2021/10/17 10:04:12;;;;;;;12.88;11.57;;;17.50;80.00;;;;;;4985215;28;20038;-75
2021/10/17 10:06:38;;;;;;;12.35;11.05;;;17.60;79.90;;;;;;4987419;28;20528;-91
2021/10/17 10:09:07;;;;;;;13.00;11.25;;;17.70;79.80;;;;;;4997568;28;20038;-76
2021/10/17 10:11:34;;;;;;;12.20;10.98;;;17.80;79.70;;;;;;5006588;28;20042;-76
2021/10/17 10:14:09;;;;;;;12.35;9.27;;;17.90;79.60;;;;;;5005159;28;20129;-78
2021/10/17 10:16:35;;;;;;;11.82;10.63;;;18.00;79.30;;;;;;4991539;28;20061;-77
2021/10/17 10:19:07;;;;;;;11.43;9.80;;;18.00;79.10;;;;;;4969621;28;20049;-81
2021/10/17 10:21:33;;;;;;;13.00;10.52;;;18.10;78.90;;;;;;4987112;28;20062;-78
2021/10/17 10:24:06;;;;;;;12.02;10.77;;;18.20;78.90;;;;;;4986518;28;20030;-78
2021/10/17 10:26:33;;;;;;;;;;;18.20;78.60;;;;;;4991355;28;20066;-76
2021/10/17 10:28:59;;;;;;;11.30;9.55;;;18.30;78.80;;;;;;4986546;28;19917;-80
2021/10/17 10:31:45;;;;;;;13.82;10.85;;;18.30;78.50;;;;;;4986606;28;20042;-81
2021/10/17 10:34:37;;;;;;;12.85;10.35;;;18.40;78.40;;;;;;4986093;28;20070;-74
2021/10/17 10:37:15;;;;;;;11.40;10.25;;;18.40;78.20;;;;;;4984295;28;20042;-75
2021/10/17 10:40:15;;;;;;;25.50;10.95;;;18.50;78.20;;;;;;5004105;28;20254;-82
2021/10/17 10:42:49;;;;;;;9.98;8.75;;;18.50;78.00;;;;;;4977954;28;20339;-83
2021/10/17 10:45:29;;;;;;;10.85;9.77;;;18.60;77.90;;;;;;5000945;28;20433;-82
2021/10/17 10:48:11;;;;;;;11.88;10.68;;;18.60;77.70;;;;;;4986482;28;20552;-81
2021/10/17 10:50:41;;;;;;;11.43;10.27;;;18.70;77.70;;;;;;4986162;28;20336;-81
2021/10/17 10:53:09;;;;;;;11.25;9.95;;;18.70;77.60;;;;;;4985941;28;20041;-83
2021/10/17 10:55:55;;;;;;;10.90;9.63;;;18.80;77.60;;;;;;4997124;28;20541;-81
2021/10/17 10:58:22;;;;;;;10.52;9.55;;;18.90;77.50;;;;;;4998534;28;20031;-82
2021/10/17 11:00:49;;;;;;;11.73;9.68;;;18.90;77.40;;;;;;4985864;28;20115;-81
2021/10/17 11:03:16;;;;;;;10.88;9.77;;;18.90;77.20;;;;;;4996329;28;20034;-80
2021/10/17 11:06:04;;;;;;;11.00;9.93;;;19.00;77.20;;;;;;5004445;28;20041;-77
2021/10/17 11:08:31;;;;;;;11.77;9.90;;;19.00;76.90;;;;;;4997793;28;20026;-81
2021/10/17 11:10:57;;;;;;;11.82;10.60;;;19.00;76.80;;;;;;4986955;28;20139;-83
2021/10/17 11:13:27;;;;;;;11.93;10.57;;;19.10;76.80;;;;;;4997416;28;20088;-84
2021/10/17 11:15:53;;;;;;;10.90;9.88;;;19.10;76.60;;;;;;5006497;28;20038;-78
2021/10/17 11:18:19;;;;;;;11.98;10.77;;;19.10;76.50;;;;;;4997703;28;20033;-83
2021/10/17 11:20:47;;;;;;;12.10;10.82;;;19.10;76.40;;;;;;5002691;28;20253;-78
2021/10/17 11:23:22;;;;;;;11.25;10.13;;;19.10;76.30;;;;;;5004201;28;20057;-79
2021/10/17 11:25:55;;;;;;;11.63;10.52;;;19.10;76.30;;;;;;5001664;28;20034;-77
2021/10/17 11:28:26;;;;;;;11.30;10.23;;;19.10;76.30;;;;;;5001831;28;20425;-79
2021/10/17 11:31:10;;;;;;;13.00;11.70;;;19.00;76.10;;;;;;4991449;28;20034;-76
2021/10/17 11:33:37;;;;;;;12.48;11.18;;;19.00;76.10;;;;;;5003721;28;20030;-78
2021/10/17 11:36:04;;;;;;;12.38;11.02;;;19.00;76.10;;;;;;4989498;28;20528;-78
2021/10/17 11:38:31;;;;;;;12.00;10.77;;;19.00;76.00;;;;;;4989582;28;20066;-77
2021/10/17 11:41:23;;;;;;;13.07;11.45;;;19.10;76.20;;;;;;4989830;28;20885;-76
2021/10/17 11:43:52;;;;;;;12.88;11.50;;;19.10;76.10;;;;;;5001236;28;20041;-77
2021/10/17 11:46:24;;;;;;;13.85;12.45;;;19.10;76.00;;;;;;5008543;28;20036;-76
2021/10/17 11:49:03;;;;;;;13.05;11.60;;;19.10;76.00;;;;;;4996956;28;20516;-76
2021/10/17 11:51:30;;;;;;;15.05;13.07;;;19.10;75.90;;;;;;4989507;28;20061;-78
2021/10/17 11:53:57;;;;;;;13.77;12.48;;;19.20;76.00;;;;;;4988422;28;20058;-75
2021/10/17 11:56:24;;;;;;;13.48;12.20;;;19.20;75.90;;;;;;5006059;28;20041;-77
2021/10/17 11:58:50;;;;;;;12.93;11.82;;;19.30;76.00;;;;;;5007043;28;20117;-77
2021/10/17 12:01:17;;;;;;;11.85;10.75;;;19.30;75.80;;;;;;5008417;28;20065;-79
2021/10/17 12:03:53;;;;;;;13.30;12.05;;;19.30;75.70;;;;;;4993971;28;20121;-79
2021/10/17 12:06:21;;;;;;;12.65;11.35;;;19.40;75.70;;;;;;4987247;28;20503;-79
2021/10/17 12:08:54;;;;;;;13.90;11.55;;;19.40;75.70;;;;;;4988137;28;20548;-77
2021/10/17 12:11:21;;;;;;;13.30;11.90;;;19.40;75.50;;;;;;4988803;28;20489;-78
2021/10/17 12:14:08;;;;;;;12.02;10.88;;;19.40;75.50;;;;;;4987486;28;20788;-77
2021/10/17 12:16:38;;;;;;;12.48;10.18;;;19.40;75.50;;;;;;5001680;28;20601;-75
2021/10/17 12:19:09;;;;;;;12.50;11.20;;;19.50;75.60;;;;;;4981076;28;20113;-78
2021/10/17 12:21:41;;;;;;;12.38;11.05;;;19.50;75.40;;;;;;4952197;28;20034;-81
2021/10/17 12:24:09;;;;;;;11.40;10.30;;;19.60;75.50;;;;;;4985535;28;20117;-80
2021/10/17 12:26:55;;;;;;;11.07;10.02;;;19.60;75.50;;;;;;4967845;28;20077;-81
2021/10/17 12:29:24;;;;;;;10.95;9.45;;;19.70;75.40;;;;;;4996127;28;20021;-78
2021/10/17 12:31:59;;;;;;;11.57;10.38;;;19.80;75.40;;;;;;5006961;28;20034;-78
2021/10/17 12:34:44;;;;;;;11.20;10.13;;;19.90;75.40;;;;;;4988103;28;20030;-78
2021/10/17 12:37:11;;;;;;;11.88;10.68;;;20.00;75.30;;;;;;4987328;28;20393;-78
2021/10/17 12:39:38;;;;;;;10.60;9.60;;;20.20;75.40;;;;;;4987742;28;20117;-77
2021/10/17 12:42:05;;;;;;;9.40;8.45;;;20.20;75.10;;;;;;4988313;28;20079;-79
2021/10/17 12:44:45;;;;;;;11.50;9.50;;;20.30;75.10;;;;;;4987079;28;20417;-76
2021/10/17 12:47:15;;;;;;;10.75;9.70;;;20.40;75.00;;;;;;4988059;28;20557;-78
2021/10/17 12:49:43;;;;;;;9.50;8.70;;;20.40;74.90;;;;;;4987672;28;20038;-78